sensor_id;sensor_type;location;lat;lon;timestamp;P1;durP1;ratioP1;P2;durP2;ratioP2
8038;SDS011;4062;49.844;8.120;2022-07-23T00:01:48;0.60;;;0.60;;
8038;SDS011;4062;49.844;8.120;2022-07-23T00:03:49;0.50;;;0.40;;
8038;SDS011;4062;49.844;8.120;2022-07-23T00:05:51;0.60;;;0.60;;
8038;SDS011;4062;49.844;8.120;2022-07-23T00:07:52;0.60;;;0.60;;
8038;SDS011;4062;49.844;8.120;2022-07-23T00:09:53;0.73;;;0.73;;
8038;SDS011;4062;49.844;8.120;2022-07-23T00:11:54;0.50;;;0.50;;
8038;SDS011;4062;49.844;8.120;2022-07-23T00:13:54;0.50;;;0.40;;
8038;SDS011;4062;49.844;8.120;2022-07-23T00:15:57;0.60;;;0.57;;
8038;SDS011;4062;49.844;8.120;2022-07-23T00:17:58;0.60;;;0.60;;
8038;SDS011;4062;49.844;8.120;2022-07-23T00:19:58;0.50;;;0.50;;
8038;SDS011;4062;49.844;8.120;2022-07-23T00:22:00;0.70;;;0.70;;
8038;SDS011;4062;49.844;8.120;2022-07-23T00:24:00;0.50;;;0.40;;
8038;SDS011;4062;49.844;8.120;2022-07-23T00:26:02;0.50;;;0.40;;
8038;SDS011;4062;49.844;8.120;2022-07-23T00:28:04;0.60;;;0.50;;
8038;SDS011;4062;49.844;8.120;2022-07-23T00:30:05;0.57;;;0.57;;
8038;SDS011;4062;49.844;8.120;2022-07-23T00:32:07;0.50;;;0.40;;
8038;SDS011;4062;49.844;8.120;2022-07-23T00:34:08;0.70;;;0.50;;
8038;SDS011;4062;49.844;8.120;2022-07-23T00:36:08;0.60;;;0.60;;
8038;SDS011;4062;49.844;8.120;2022-07-23T00:38:09;0.50;;;0.40;;
8038;SDS011;4062;49.844;8.120;2022-07-23T00:40:11;0.60;;;0.57;;
8038;SDS011;4062;49.844;8.120;2022-07-23T00:42:12;0.50;;;0.40;;
8038;SDS011;4062;49.844;8.120;2022-07-23T00:44:16;0.60;;;0.57;;
8038;SDS011;4062;49.844;8.120;2022-07-23T00:46:23;0.50;;;0.50;;
8038;SDS011;4062;49.844;8.120;2022-07-23T00:48:25;0.80;;;0.80;;
8038;SDS011;4062;49.844;8.120;2022-07-23T00:50:26;0.60;;;0.60;;
8038;SDS011;4062;49.844;8.120;2022-07-23T00:52:27;0.50;;;0.50;;
8038;SDS011;4062;49.844;8.120;2022-07-23T00:54:28;0.60;;;0.50;;
8038;SDS011;4062;49.844;8.120;2022-07-23T00:56:29;0.60;;;0.60;;
8038;SDS011;4062;49.844;8.120;2022-07-23T00:58:30;0.53;;;0.53;;
8038;SDS011;4062;49.844;8.120;2022-07-23T01:00:33;0.60;;;0.50;;
8038;SDS011;4062;49.844;8.120;2022-07-23T01:02:33;0.50;;;0.40;;
8038;SDS011;4062;49.844;8.120;2022-07-23T01:04:34;0.60;;;0.60;;
8038;SDS011;4062;49.844;8.120;2022-07-23T01:06:36;0.53;;;0.53;;
8038;SDS011;4062;49.844;8.120;2022-07-23T01:08:38;0.60;;;0.60;;
8038;SDS011;4062;49.844;8.120;2022-07-23T01:10:39;0.50;;;0.50;;
8038;SDS011;4062;49.844;8.120;2022-07-23T01:12:41;0.70;;;0.70;;
8038;SDS011;4062;49.844;8.120;2022-07-23T01:14:41;0.63;;;0.63;;
8038;SDS011;4062;49.844;8.120;2022-07-23T01:16:43;0.50;;;0.50;;
8038;SDS011;4062;49.844;8.120;2022-07-23T01:18:45;0.70;;;0.70;;
8038;SDS011;4062;49.844;8.120;2022-07-23T01:20:46;0.60;;;0.60;;
8038;SDS011;4062;49.844;8.120;2022-07-23T01:22:46;0.70;;;0.70;;
8038;SDS011;4062;49.844;8.120;2022-07-23T01:24:47;0.60;;;0.60;;
8038;SDS011;4062;49.844;8.120;2022-07-23T01:26:48;0.50;;;0.40;;
8038;SDS011;4062;49.844;8.120;2022-07-23T01:28:50;0.60;;;0.53;;
8038;SDS011;4062;49.844;8.120;2022-07-23T01:30:50;0.70;;;0.70;;
8038;SDS011;4062;49.844;8.120;2022-07-23T01:32:51;1.87;;;0.70;;
8038;SDS011;4062;49.844;8.120;2022-07-23T01:34:52;0.60;;;0.60;;
8038;SDS011;4062;49.844;8.120;2022-07-23T01:36:52;0.63;;;0.63;;
8038;SDS011;4062;49.844;8.120;2022-07-23T01:38:53;0.57;;;0.57;;
8038;SDS011;4062;49.844;8.120;2022-07-23T01:40:54;0.60;;;0.60;;
8038;SDS011;4062;49.844;8.120;2022-07-23T01:42:55;0.50;;;0.50;;
8038;SDS011;4062;49.844;8.120;2022-07-23T01:44:55;0.57;;;0.57;;
8038;SDS011;4062;49.844;8.120;2022-07-23T01:46:56;0.60;;;0.60;;
8038;SDS011;4062;49.844;8.120;2022-07-23T01:48:57;0.60;;;0.60;;
8038;SDS011;4062;49.844;8.120;2022-07-23T01:50:58;0.57;;;0.57;;
8038;SDS011;4062;49.844;8.120;2022-07-23T01:52:58;0.60;;;0.50;;
8038;SDS011;4062;49.844;8.120;2022-07-23T01:54:59;0.60;;;0.60;;
8038;SDS011;4062;49.844;8.120;2022-07-23T01:57:00;0.50;;;0.50;;
8038;SDS011;4062;49.844;8.120;2022-07-23T01:59:01;0.63;;;0.63;;
8038;SDS011;4062;49.844;8.120;2022-07-23T02:01:01;0.93;;;0.93;;
8038;SDS011;4062;49.844;8.120;2022-07-23T02:03:02;0.70;;;0.70;;
8038;SDS011;4062;49.844;8.120;2022-07-23T02:05:03;0.50;;;0.50;;
8038;SDS011;4062;49.844;8.120;2022-07-23T02:07:04;0.70;;;0.70;;
8038;SDS011;4062;49.844;8.120;2022-07-23T02:09:05;0.50;;;0.50;;
8038;SDS011;4062;49.844;8.120;2022-07-23T02:11:06;0.50;;;0.47;;
8038;SDS011;4062;49.844;8.120;2022-07-23T02:13:07;0.80;;;0.80;;
8038;SDS011;4062;49.844;8.120;2022-07-23T02:15:08;0.73;;;0.73;;
8038;SDS011;4062;49.844;8.120;2022-07-23T02:17:09;0.50;;;0.43;;
8038;SDS011;4062;49.844;8.120;2022-07-23T02:19:10;0.70;;;0.70;;
8038;SDS011;4062;49.844;8.120;2022-07-23T02:21:11;0.60;;;0.60;;
8038;SDS011;4062;49.844;8.120;2022-07-23T02:23:11;0.50;;;0.50;;
8038;SDS011;4062;49.844;8.120;2022-07-23T02:25:12;1.00;;;1.00;;
8038;SDS011;4062;49.844;8.120;2022-07-23T02:27:13;0.93;;;0.70;;
8038;SDS011;4062;49.844;8.120;2022-07-23T02:29:14;0.70;;;0.70;;
8038;SDS011;4062;49.844;8.120;2022-07-23T02:31:14;0.60;;;0.60;;
8038;SDS011;4062;49.844;8.120;2022-07-23T02:33:15;0.93;;;0.87;;
8038;SDS011;4062;49.844;8.120;2022-07-23T02:35:16;0.97;;;0.97;;
8038;SDS011;4062;49.844;8.120;2022-07-23T02:37:17;0.70;;;0.70;;
8038;SDS011;4062;49.844;8.120;2022-07-23T02:39:17;0.57;;;0.50;;
8038;SDS011;4062;49.844;8.120;2022-07-23T02:41:18;0.50;;;0.50;;
8038;SDS011;4062;49.844;8.120;2022-07-23T02:43:19;0.50;;;0.50;;
8038;SDS011;4062;49.844;8.120;2022-07-23T02:45:20;0.50;;;0.50;;
8038;SDS011;4062;49.844;8.120;2022-07-23T02:47:20;0.53;;;0.53;;
8038;SDS011;4062;49.844;8.120;2022-07-23T02:49:21;0.73;;;0.73;;
8038;SDS011;4062;49.844;8.120;2022-07-23T02:51:22;0.83;;;0.83;;
8038;SDS011;4062;49.844;8.120;2022-07-23T02:53:23;0.80;;;0.80;;
8038;SDS011;4062;49.844;8.120;2022-07-23T02:55:24;0.60;;;0.60;;
8038;SDS011;4062;49.844;8.120;2022-07-23T02:57:25;0.60;;;0.50;;
8038;SDS011;4062;49.844;8.120;2022-07-23T02:59:25;0.50;;;0.50;;
8038;SDS011;4062;49.844;8.120;2022-07-23T03:01:26;0.67;;;0.67;;
8038;SDS011;4062;49.844;8.120;2022-07-23T03:03:27;0.60;;;0.60;;
8038;SDS011;4062;49.844;8.120;2022-07-23T03:05:27;0.50;;;0.50;;
8038;SDS011;4062;49.844;8.120;2022-07-23T03:07:28;0.60;;;0.60;;
8038;SDS011;4062;49.844;8.120;2022-07-23T03:09:29;0.50;;;0.50;;
8038;SDS011;4062;49.844;8.120;2022-07-23T03:11:30;0.80;;;0.80;;
8038;SDS011;4062;49.844;8.120;2022-07-23T03:13:31;0.70;;;0.70;;
8038;SDS011;4062;49.844;8.120;2022-07-23T03:15:31;0.60;;;0.60;;
8038;SDS011;4062;49.844;8.120;2022-07-23T03:17:32;0.80;;;0.80;;
8038;SDS011;4062;49.844;8.120;2022-07-23T03:19:33;0.53;;;0.53;;
8038;SDS011;4062;49.844;8.120;2022-07-23T03:21:34;0.87;;;0.87;;
8038;SDS011;4062;49.844;8.120;2022-07-23T03:23:38;0.60;;;0.60;;
8038;SDS011;4062;49.844;8.120;2022-07-23T03:25:39;0.50;;;0.50;;
8038;SDS011;4062;49.844;8.120;2022-07-23T03:27:40;0.57;;;0.57;;
8038;SDS011;4062;49.844;8.120;2022-07-23T03:29:40;0.60;;;0.60;;
8038;SDS011;4062;49.844;8.120;2022-07-23T03:31:41;0.97;;;0.77;;
8038;SDS011;4062;49.844;8.120;2022-07-23T03:33:42;0.50;;;0.50;;
8038;SDS011;4062;49.844;8.120;2022-07-23T03:35:43;0.60;;;0.60;;
8038;SDS011;4062;49.844;8.120;2022-07-23T03:37:46;0.77;;;0.77;;
8038;SDS011;4062;49.844;8.120;2022-07-23T03:39:46;0.87;;;0.87;;
8038;SDS011;4062;49.844;8.120;2022-07-23T03:41:47;0.80;;;0.80;;
8038;SDS011;4062;49.844;8.120;2022-07-23T03:43:48;0.80;;;0.80;;
8038;SDS011;4062;49.844;8.120;2022-07-23T03:45:49;0.70;;;0.70;;
8038;SDS011;4062;49.844;8.120;2022-07-23T03:47:49;0.67;;;0.67;;
8038;SDS011;4062;49.844;8.120;2022-07-23T03:49:50;0.57;;;0.57;;
8038;SDS011;4062;49.844;8.120;2022-07-23T03:51:51;0.60;;;0.60;;
8038;SDS011;4062;49.844;8.120;2022-07-23T03:53:51;0.50;;;0.40;;
8038;SDS011;4062;49.844;8.120;2022-07-23T03:56:04;0.50;;;0.50;;
8038;SDS011;4062;49.844;8.120;2022-07-23T03:58:05;0.80;;;0.80;;
8038;SDS011;4062;49.844;8.120;2022-07-23T04:00:06;0.70;;;0.70;;
8038;SDS011;4062;49.844;8.120;2022-07-23T04:02:09;0.60;;;0.60;;
8038;SDS011;4062;49.844;8.120;2022-07-23T04:04:10;0.50;;;0.50;;
8038;SDS011;4062;49.844;8.120;2022-07-23T04:06:11;0.60;;;0.60;;
8038;SDS011;4062;49.844;8.120;2022-07-23T04:08:13;0.50;;;0.50;;
8038;SDS011;4062;49.844;8.120;2022-07-23T04:10:13;0.53;;;0.53;;
8038;SDS011;4062;49.844;8.120;2022-07-23T04:12:14;0.70;;;0.70;;
8038;SDS011;4062;49.844;8.120;2022-07-23T04:14:15;0.70;;;0.70;;
8038;SDS011;4062;49.844;8.120;2022-07-23T04:16:16;0.50;;;0.50;;
8038;SDS011;4062;49.844;8.120;2022-07-23T04:18:17;0.50;;;0.50;;
8038;SDS011;4062;49.844;8.120;2022-07-23T04:20:18;0.80;;;0.80;;
8038;SDS011;4062;49.844;8.120;2022-07-23T04:22:18;0.67;;;0.67;;
8038;SDS011;4062;49.844;8.120;2022-07-23T04:24:19;0.63;;;0.63;;
8038;SDS011;4062;49.844;8.120;2022-07-23T04:26:20;0.80;;;0.80;;
8038;SDS011;4062;49.844;8.120;2022-07-23T04:28:21;0.70;;;0.70;;
8038;SDS011;4062;49.844;8.120;2022-07-23T04:30:21;0.63;;;0.63;;
8038;SDS011;4062;49.844;8.120;2022-07-23T04:32:22;0.63;;;0.63;;
8038;SDS011;4062;49.844;8.120;2022-07-23T04:34:23;0.60;;;0.60;;
8038;SDS011;4062;49.844;8.120;2022-07-23T04:36:26;0.60;;;0.60;;
8038;SDS011;4062;49.844;8.120;2022-07-23T04:38:27;0.63;;;0.63;;
8038;SDS011;4062;49.844;8.120;2022-07-23T04:40:27;0.77;;;0.77;;
8038;SDS011;4062;49.844;8.120;2022-07-23T04:42:29;0.70;;;0.70;;
8038;SDS011;4062;49.844;8.120;2022-07-23T04:44:30;0.73;;;0.73;;
8038;SDS011;4062;49.844;8.120;2022-07-23T04:46:30;1.47;;;1.17;;
8038;SDS011;4062;49.844;8.120;2022-07-23T04:48:31;0.70;;;0.70;;
8038;SDS011;4062;49.844;8.120;2022-07-23T04:50:32;0.70;;;0.70;;
8038;SDS011;4062;49.844;8.120;2022-07-23T04:52:33;0.70;;;0.70;;
8038;SDS011;4062;49.844;8.120;2022-07-23T04:54:33;0.70;;;0.70;;
8038;SDS011;4062;49.844;8.120;2022-07-23T04:56:34;0.77;;;0.77;;
8038;SDS011;4062;49.844;8.120;2022-07-23T04:58:35;0.60;;;0.60;;
8038;SDS011;4062;49.844;8.120;2022-07-23T05:00:36;0.77;;;0.77;;
8038;SDS011;4062;49.844;8.120;2022-07-23T05:02:37;0.50;;;0.50;;
8038;SDS011;4062;49.844;8.120;2022-07-23T05:04:37;1.00;;;1.00;;
8038;SDS011;4062;49.844;8.120;2022-07-23T05:06:38;0.60;;;0.60;;
8038;SDS011;4062;49.844;8.120;2022-07-23T05:08:39;0.67;;;0.67;;
8038;SDS011;4062;49.844;8.120;2022-07-23T05:10:40;0.60;;;0.60;;
8038;SDS011;4062;49.844;8.120;2022-07-23T05:12:40;0.57;;;0.57;;
8038;SDS011;4062;49.844;8.120;2022-07-23T05:14:41;0.67;;;0.67;;
8038;SDS011;4062;49.844;8.120;2022-07-23T05:16:42;0.87;;;0.87;;
8038;SDS011;4062;49.844;8.120;2022-07-23T05:18:43;0.60;;;0.53;;
8038;SDS011;4062;49.844;8.120;2022-07-23T05:20:43;0.80;;;0.80;;
8038;SDS011;4062;49.844;8.120;2022-07-23T05:22:44;0.80;;;0.80;;
8038;SDS011;4062;49.844;8.120;2022-07-23T05:24:45;0.90;;;0.90;;
8038;SDS011;4062;49.844;8.120;2022-07-23T05:26:45;1.17;;;0.97;;
8038;SDS011;4062;49.844;8.120;2022-07-23T05:28:46;0.80;;;0.80;;
8038;SDS011;4062;49.844;8.120;2022-07-23T05:30:47;0.83;;;0.83;;
8038;SDS011;4062;49.844;8.120;2022-07-23T05:32:47;0.70;;;0.70;;
8038;SDS011;4062;49.844;8.120;2022-07-23T05:34:48;0.87;;;0.87;;
8038;SDS011;4062;49.844;8.120;2022-07-23T05:36:49;1.37;;;1.17;;
8038;SDS011;4062;49.844;8.120;2022-07-23T05:38:50;0.50;;;0.50;;
8038;SDS011;4062;49.844;8.120;2022-07-23T05:40:51;0.70;;;0.70;;
8038;SDS011;4062;49.844;8.120;2022-07-23T05:42:51;0.80;;;0.80;;
8038;SDS011;4062;49.844;8.120;2022-07-23T05:44:52;0.87;;;0.87;;
8038;SDS011;4062;49.844;8.120;2022-07-23T05:46:53;0.53;;;0.53;;
8038;SDS011;4062;49.844;8.120;2022-07-23T05:48:53;0.90;;;0.90;;
8038;SDS011;4062;49.844;8.120;2022-07-23T05:50:54;0.90;;;0.90;;
8038;SDS011;4062;49.844;8.120;2022-07-23T05:52:55;0.70;;;0.60;;
8038;SDS011;4062;49.844;8.120;2022-07-23T05:54:55;0.50;;;0.40;;
8038;SDS011;4062;49.844;8.120;2022-07-23T05:56:56;0.70;;;0.70;;
8038;SDS011;4062;49.844;8.120;2022-07-23T05:58:57;0.70;;;0.70;;
8038;SDS011;4062;49.844;8.120;2022-07-23T06:00:58;0.60;;;0.60;;
8038;SDS011;4062;49.844;8.120;2022-07-23T06:02:58;0.73;;;0.73;;
8038;SDS011;4062;49.844;8.120;2022-07-23T06:04:59;0.60;;;0.60;;
8038;SDS011;4062;49.844;8.120;2022-07-23T06:07:00;1.53;;;0.60;;
8038;SDS011;4062;49.844;8.120;2022-07-23T06:09:00;0.80;;;0.80;;
8038;SDS011;4062;49.844;8.120;2022-07-23T06:11:01;0.90;;;0.90;;
8038;SDS011;4062;49.844;8.120;2022-07-23T06:13:02;1.03;;;0.97;;
8038;SDS011;4062;49.844;8.120;2022-07-23T06:15:03;0.73;;;0.73;;
8038;SDS011;4062;49.844;8.120;2022-07-23T06:17:04;0.60;;;0.60;;
8038;SDS011;4062;49.844;8.120;2022-07-23T06:19:05;0.60;;;0.60;;
8038;SDS011;4062;49.844;8.120;2022-07-23T06:21:05;0.70;;;0.70;;
8038;SDS011;4062;49.844;8.120;2022-07-23T06:23:06;0.60;;;0.60;;
8038;SDS011;4062;49.844;8.120;2022-07-23T06:25:07;1.00;;;1.00;;
8038;SDS011;4062;49.844;8.120;2022-07-23T06:27:08;9.03;;;1.17;;
8038;SDS011;4062;49.844;8.120;2022-07-23T06:29:09;3.90;;;1.10;;
8038;SDS011;4062;49.844;8.120;2022-07-23T06:31:10;2.57;;;1.07;;
8038;SDS011;4062;49.844;8.120;2022-07-23T06:33:11;1.10;;;1.10;;
8038;SDS011;4062;49.844;8.120;2022-07-23T06:35:12;1.00;;;1.00;;
8038;SDS011;4062;49.844;8.120;2022-07-23T06:37:13;1.30;;;1.20;;
8038;SDS011;4062;49.844;8.120;2022-07-23T06:39:14;1.33;;;0.90;;
8038;SDS011;4062;49.844;8.120;2022-07-23T06:41:14;1.00;;;1.00;;
8038;SDS011;4062;49.844;8.120;2022-07-23T06:43:15;1.27;;;0.80;;
8038;SDS011;4062;49.844;8.120;2022-07-23T06:45:16;0.77;;;0.77;;
8038;SDS011;4062;49.844;8.120;2022-07-23T06:47:17;0.80;;;0.80;;
8038;SDS011;4062;49.844;8.120;2022-07-23T06:49:17;1.10;;;1.10;;
8038;SDS011;4062;49.844;8.120;2022-07-23T06:51:18;1.00;;;1.00;;
8038;SDS011;4062;49.844;8.120;2022-07-23T06:53:19;1.37;;;1.27;;
8038;SDS011;4062;49.844;8.120;2022-07-23T06:55:20;1.17;;;1.17;;
8038;SDS011;4062;49.844;8.120;2022-07-23T06:57:22;0.80;;;0.80;;
8038;SDS011;4062;49.844;8.120;2022-07-23T06:59:25;1.20;;;1.20;;
8038;SDS011;4062;49.844;8.120;2022-07-23T07:01:26;3.57;;;1.83;;
8038;SDS011;4062;49.844;8.120;2022-07-23T07:03:27;1.43;;;1.33;;
8038;SDS011;4062;49.844;8.120;2022-07-23T07:05:28;1.50;;;1.40;;
8038;SDS011;4062;49.844;8.120;2022-07-23T07:07:29;1.07;;;1.07;;
8038;SDS011;4062;49.844;8.120;2022-07-23T07:09:30;1.50;;;1.40;;
8038;SDS011;4062;49.844;8.120;2022-07-23T07:11:30;1.07;;;1.07;;
8038;SDS011;4062;49.844;8.120;2022-07-23T07:13:31;1.47;;;1.47;;
8038;SDS011;4062;49.844;8.120;2022-07-23T07:15:32;1.07;;;1.07;;
8038;SDS011;4062;49.844;8.120;2022-07-23T07:17:32;1.53;;;1.43;;
8038;SDS011;4062;49.844;8.120;2022-07-23T07:19:33;3.50;;;1.10;;
8038;SDS011;4062;49.844;8.120;2022-07-23T07:21:34;1.00;;;1.00;;
8038;SDS011;4062;49.844;8.120;2022-07-23T07:23:35;1.40;;;1.40;;
8038;SDS011;4062;49.844;8.120;2022-07-23T07:25:36;1.53;;;1.43;;
8038;SDS011;4062;49.844;8.120;2022-07-23T07:27:36;1.63;;;1.60;;
8038;SDS011;4062;49.844;8.120;2022-07-23T07:29:37;2.00;;;1.10;;
8038;SDS011;4062;49.844;8.120;2022-07-23T07:31:38;0.87;;;0.87;;
8038;SDS011;4062;49.844;8.120;2022-07-23T07:33:39;2.00;;;0.90;;
8038;SDS011;4062;49.844;8.120;2022-07-23T07:35:40;1.53;;;1.43;;
8038;SDS011;4062;49.844;8.120;2022-07-23T07:37:41;1.30;;;1.30;;
8038;SDS011;4062;49.844;8.120;2022-07-23T07:39:42;1.37;;;1.30;;
8038;SDS011;4062;49.844;8.120;2022-07-23T07:41:44;1.47;;;1.47;;
8038;SDS011;4062;49.844;8.120;2022-07-23T07:43:45;1.03;;;1.03;;
8038;SDS011;4062;49.844;8.120;2022-07-23T07:45:45;0.70;;;0.70;;
8038;SDS011;4062;49.844;8.120;2022-07-23T07:47:46;1.53;;;0.80;;
8038;SDS011;4062;49.844;8.120;2022-07-23T07:49:47;0.60;;;0.60;;
8038;SDS011;4062;49.844;8.120;2022-07-23T07:51:48;1.60;;;1.50;;
8038;SDS011;4062;49.844;8.120;2022-07-23T07:53:49;1.20;;;1.20;;
8038;SDS011;4062;49.844;8.120;2022-07-23T07:55:50;1.00;;;1.00;;
8038;SDS011;4062;49.844;8.120;2022-07-23T07:57:51;1.73;;;1.10;;
8038;SDS011;4062;49.844;8.120;2022-07-23T07:59:51;1.00;;;1.00;;
8038;SDS011;4062;49.844;8.120;2022-07-23T08:01:52;1.00;;;1.00;;
8038;SDS011;4062;49.844;8.120;2022-07-23T08:03:53;1.20;;;1.20;;
8038;SDS011;4062;49.844;8.120;2022-07-23T08:05:54;0.97;;;0.97;;
8038;SDS011;4062;49.844;8.120;2022-07-23T08:07:56;0.97;;;0.97;;
8038;SDS011;4062;49.844;8.120;2022-07-23T08:09:57;0.80;;;0.80;;
8038;SDS011;4062;49.844;8.120;2022-07-23T08:11:58;1.00;;;1.00;;
8038;SDS011;4062;49.844;8.120;2022-07-23T08:13:59;1.20;;;1.20;;
8038;SDS011;4062;49.844;8.120;2022-07-23T08:16:00;1.20;;;1.10;;
8038;SDS011;4062;49.844;8.120;2022-07-23T08:18:01;0.90;;;0.90;;
8038;SDS011;4062;49.844;8.120;2022-07-23T08:20:02;0.87;;;0.87;;
8038;SDS011;4062;49.844;8.120;2022-07-23T08:22:04;0.83;;;0.80;;
8038;SDS011;4062;49.844;8.120;2022-07-23T08:24:05;1.03;;;1.03;;
8038;SDS011;4062;49.844;8.120;2022-07-23T08:26:06;0.77;;;0.77;;
8038;SDS011;4062;49.844;8.120;2022-07-23T08:28:08;0.80;;;0.80;;
8038;SDS011;4062;49.844;8.120;2022-07-23T08:30:10;0.80;;;0.80;;
8038;SDS011;4062;49.844;8.120;2022-07-23T08:32:11;0.70;;;0.70;;
8038;SDS011;4062;49.844;8.120;2022-07-23T08:34:13;0.93;;;0.93;;
8038;SDS011;4062;49.844;8.120;2022-07-23T08:36:13;1.20;;;1.10;;
8038;SDS011;4062;49.844;8.120;2022-07-23T08:38:15;0.70;;;0.70;;
8038;SDS011;4062;49.844;8.120;2022-07-23T08:40:18;0.93;;;0.93;;
8038;SDS011;4062;49.844;8.120;2022-07-23T08:42:19;0.63;;;0.63;;
8038;SDS011;4062;49.844;8.120;2022-07-23T08:44:21;0.80;;;0.80;;
8038;SDS011;4062;49.844;8.120;2022-07-23T08:46:22;1.03;;;1.03;;
8038;SDS011;4062;49.844;8.120;2022-07-23T08:48:24;0.80;;;0.80;;
8038;SDS011;4062;49.844;8.120;2022-07-23T08:50:28;1.00;;;1.00;;
8038;SDS011;4062;49.844;8.120;2022-07-23T08:52:30;0.60;;;0.60;;
8038;SDS011;4062;49.844;8.120;2022-07-23T08:54:31;0.80;;;0.80;;
8038;SDS011;4062;49.844;8.120;2022-07-23T08:56:34;0.70;;;0.70;;
8038;SDS011;4062;49.844;8.120;2022-07-23T08:58:35;0.80;;;0.80;;
8038;SDS011;4062;49.844;8.120;2022-07-23T09:00:36;0.80;;;0.80;;
8038;SDS011;4062;49.844;8.120;2022-07-23T09:02:41;0.90;;;0.90;;
8038;SDS011;4062;49.844;8.120;2022-07-23T09:04:42;1.17;;;1.17;;
8038;SDS011;4062;49.844;8.120;2022-07-23T09:06:44;1.20;;;1.20;;
8038;SDS011;4062;49.844;8.120;2022-07-23T09:08:47;0.70;;;0.70;;
8038;SDS011;4062;49.844;8.120;2022-07-23T09:10:52;0.90;;;0.90;;
8038;SDS011;4062;49.844;8.120;2022-07-23T09:13:04;0.83;;;0.83;;
8038;SDS011;4062;49.844;8.120;2022-07-23T09:15:06;0.80;;;0.80;;
8038;SDS011;4062;49.844;8.120;2022-07-23T09:17:11;1.10;;;1.10;;
8038;SDS011;4062;49.844;8.120;2022-07-23T09:19:15;0.60;;;0.60;;
8038;SDS011;4062;49.844;8.120;2022-07-23T09:23:20;0.73;;;0.73;;
8038;SDS011;4062;49.844;8.120;2022-07-23T09:26:00;1.13;;;1.13;;
8038;SDS011;4062;49.844;8.120;2022-07-23T09:28:16;0.87;;;0.87;;
8038;SDS011;4062;49.844;8.120;2022-07-23T09:30:17;0.60;;;0.60;;
8038;SDS011;4062;49.844;8.120;2022-07-23T09:32:20;1.30;;;1.30;;
8038;SDS011;4062;49.844;8.120;2022-07-23T09:34:22;0.70;;;0.70;;
8038;SDS011;4062;49.844;8.120;2022-07-23T09:36:28;0.90;;;0.90;;
8038;SDS011;4062;49.844;8.120;2022-07-23T09:38:29;0.80;;;0.80;;
8038;SDS011;4062;49.844;8.120;2022-07-23T09:40:30;0.80;;;0.80;;
8038;SDS011;4062;49.844;8.120;2022-07-23T09:42:31;1.10;;;1.10;;
8038;SDS011;4062;49.844;8.120;2022-07-23T09:44:31;1.43;;;0.97;;
8038;SDS011;4062;49.844;8.120;2022-07-23T09:46:42;1.00;;;1.00;;
8038;SDS011;4062;49.844;8.120;2022-07-23T09:48:48;0.90;;;0.80;;
8038;SDS011;4062;49.844;8.120;2022-07-23T09:50:51;0.90;;;0.90;;
8038;SDS011;4062;49.844;8.120;2022-07-23T09:52:52;1.03;;;1.03;;
8038;SDS011;4062;49.844;8.120;2022-07-23T09:54:57;1.57;;;1.10;;
8038;SDS011;4062;49.844;8.120;2022-07-23T09:57:04;1.60;;;1.50;;
8038;SDS011;4062;49.844;8.120;2022-07-23T09:59:16;1.20;;;1.20;;
8038;SDS011;4062;49.844;8.120;2022-07-23T10:01:19;1.17;;;1.17;;
8038;SDS011;4062;49.844;8.120;2022-07-23T10:03:21;1.00;;;1.00;;
8038;SDS011;4062;49.844;8.120;2022-07-23T10:05:24;0.90;;;0.90;;
8038;SDS011;4062;49.844;8.120;2022-07-23T10:07:25;1.20;;;1.20;;
8038;SDS011;4062;49.844;8.120;2022-07-23T10:09:33;1.20;;;1.20;;
8038;SDS011;4062;49.844;8.120;2022-07-23T10:11:39;1.10;;;1.10;;
8038;SDS011;4062;49.844;8.120;2022-07-23T10:13:40;1.53;;;1.43;;
8038;SDS011;4062;49.844;8.120;2022-07-23T10:15:54;1.10;;;1.10;;
8038;SDS011;4062;49.844;8.120;2022-07-23T10:17:55;1.20;;;1.20;;
8038;SDS011;4062;49.844;8.120;2022-07-23T10:19:56;0.80;;;0.80;;
8038;SDS011;4062;49.844;8.120;2022-07-23T10:21:58;1.10;;;1.10;;
8038;SDS011;4062;49.844;8.120;2022-07-23T10:26:54;1.53;;;1.53;;
8038;SDS011;4062;49.844;8.120;2022-07-23T10:34:25;1.30;;;1.30;;
8038;SDS011;4062;49.844;8.120;2022-07-23T10:37:06;1.00;;;1.00;;
8038;SDS011;4062;49.844;8.120;2022-07-23T10:39:32;1.27;;;1.20;;
8038;SDS011;4062;49.844;8.120;2022-07-23T10:41:36;0.90;;;0.90;;
8038;SDS011;4062;49.844;8.120;2022-07-23T10:43:40;1.10;;;1.10;;
8038;SDS011;4062;49.844;8.120;2022-07-23T10:45:41;1.20;;;1.10;;
8038;SDS011;4062;49.844;8.120;2022-07-23T10:47:42;1.30;;;1.30;;
8038;SDS011;4062;49.844;8.120;2022-07-23T10:49:43;0.93;;;0.93;;
8038;SDS011;4062;49.844;8.120;2022-07-23T10:52:29;1.10;;;1.10;;
8038;SDS011;4062;49.844;8.120;2022-07-23T10:54:20;1.10;;;1.00;;
8038;SDS011;4062;49.844;8.120;2022-07-23T10:58:57;1.07;;;1.07;;
8038;SDS011;4062;49.844;8.120;2022-07-23T11:01:16;1.33;;;1.33;;
8038;SDS011;4062;49.844;8.120;2022-07-23T11:03:33;1.03;;;1.03;;
8038;SDS011;4062;49.844;8.120;2022-07-23T11:05:40;1.03;;;1.03;;
8038;SDS011;4062;49.844;8.120;2022-07-23T11:10:35;1.30;;;1.30;;
8038;SDS011;4062;49.844;8.120;2022-07-23T11:12:45;1.27;;;1.27;;
8038;SDS011;4062;49.844;8.120;2022-07-23T11:15:05;1.20;;;1.20;;
8038;SDS011;4062;49.844;8.120;2022-07-23T11:17:19;0.93;;;0.93;;
8038;SDS011;4062;49.844;8.120;2022-07-23T11:19:20;1.00;;;1.00;;
8038;SDS011;4062;49.844;8.120;2022-07-23T11:23:54;1.27;;;1.27;;
8038;SDS011;4062;49.844;8.120;2022-07-23T11:26:09;1.40;;;1.40;;
8038;SDS011;4062;49.844;8.120;2022-07-23T11:28:48;1.33;;;1.33;;
8038;SDS011;4062;49.844;8.120;2022-07-23T11:30:49;0.80;;;0.80;;
8038;SDS011;4062;49.844;8.120;2022-07-23T11:32:50;0.80;;;0.80;;
8038;SDS011;4062;49.844;8.120;2022-07-23T11:34:51;1.00;;;1.00;;
8038;SDS011;4062;49.844;8.120;2022-07-23T11:36:53;1.20;;;1.20;;
8038;SDS011;4062;49.844;8.120;2022-07-23T11:38:55;1.40;;;1.40;;
8038;SDS011;4062;49.844;8.120;2022-07-23T11:40:56;1.80;;;1.70;;
8038;SDS011;4062;49.844;8.120;2022-07-23T11:43:07;0.80;;;0.80;;
8038;SDS011;4062;49.844;8.120;2022-07-23T11:45:11;1.47;;;1.37;;
8038;SDS011;4062;49.844;8.120;2022-07-23T11:47:12;1.13;;;1.13;;
8038;SDS011;4062;49.844;8.120;2022-07-23T11:49:13;0.80;;;0.80;;
8038;SDS011;4062;49.844;8.120;2022-07-23T11:51:24;0.97;;;0.97;;
8038;SDS011;4062;49.844;8.120;2022-07-23T11:53:30;1.00;;;1.00;;
8038;SDS011;4062;49.844;8.120;2022-07-23T11:55:34;2.20;;;2.00;;
8038;SDS011;4062;49.844;8.120;2022-07-23T11:57:36;1.20;;;1.20;;
8038;SDS011;4062;49.844;8.120;2022-07-23T11:59:41;1.07;;;1.07;;
8038;SDS011;4062;49.844;8.120;2022-07-23T12:01:59;1.40;;;1.40;;
8038;SDS011;4062;49.844;8.120;2022-07-23T12:04:04;0.90;;;0.90;;
8038;SDS011;4062;49.844;8.120;2022-07-23T12:06:05;0.90;;;0.90;;
8038;SDS011;4062;49.844;8.120;2022-07-23T12:08:06;1.17;;;1.17;;
8038;SDS011;4062;49.844;8.120;2022-07-23T12:10:15;1.60;;;1.60;;
8038;SDS011;4062;49.844;8.120;2022-07-23T12:12:24;0.67;;;0.67;;
8038;SDS011;4062;49.844;8.120;2022-07-23T12:14:26;1.63;;;1.53;;
8038;SDS011;4062;49.844;8.120;2022-07-23T12:16:27;1.07;;;1.07;;
8038;SDS011;4062;49.844;8.120;2022-07-23T12:18:27;1.43;;;1.40;;
8038;SDS011;4062;49.844;8.120;2022-07-23T12:20:36;1.27;;;1.27;;
8038;SDS011;4062;49.844;8.120;2022-07-23T12:22:42;1.03;;;1.03;;
8038;SDS011;4062;49.844;8.120;2022-07-23T12:24:53;1.03;;;1.00;;
8038;SDS011;4062;49.844;8.120;2022-07-23T12:27:12;1.43;;;1.33;;
8038;SDS011;4062;49.844;8.120;2022-07-23T12:29:13;1.03;;;1.03;;
8038;SDS011;4062;49.844;8.120;2022-07-23T12:31:14;1.43;;;1.33;;
8038;SDS011;4062;49.844;8.120;2022-07-23T12:33:21;1.10;;;1.10;;
8038;SDS011;4062;49.844;8.120;2022-07-23T12:35:36;1.67;;;1.57;;
8038;SDS011;4062;49.844;8.120;2022-07-23T12:37:42;1.20;;;1.20;;
8038;SDS011;4062;49.844;8.120;2022-07-23T12:39:45;1.10;;;1.10;;
8038;SDS011;4062;49.844;8.120;2022-07-23T12:41:53;1.03;;;1.03;;
8038;SDS011;4062;49.844;8.120;2022-07-23T12:43:54;1.20;;;1.10;;
8038;SDS011;4062;49.844;8.120;2022-07-23T12:45:56;0.97;;;0.97;;
8038;SDS011;4062;49.844;8.120;2022-07-23T12:48:07;1.20;;;1.10;;
8038;SDS011;4062;49.844;8.120;2022-07-23T12:50:23;1.50;;;1.50;;
8038;SDS011;4062;49.844;8.120;2022-07-23T12:52:39;1.27;;;1.27;;
8038;SDS011;4062;49.844;8.120;2022-07-23T12:54:39;0.90;;;0.90;;
8038;SDS011;4062;49.844;8.120;2022-07-23T12:56:40;1.10;;;1.10;;
8038;SDS011;4062;49.844;8.120;2022-07-23T13:00:55;1.00;;;1.00;;
8038;SDS011;4062;49.844;8.120;2022-07-23T13:03:02;1.27;;;1.27;;